Time,TemperatureF,DewpointF,PressureIn,WindDirection,WindDirectionDegrees,WindSpeedMPH,WindSpeedGustMPH,Humidity,HourlyPrecipIn,Conditions,Clouds,dailyrainin,SoftwareType,DateUTC
2013-04-13 00:00:00,29.9,25.7,30.10,WSW,247,4.0,14.0,84,0.00,,,0.00,Weather View 32 v70,2013-04-13 05:00:00,
2013-04-13 00:05:00,29.9,25.7,30.11,West,270,5.0,14.0,84,0.00,,,0.00,Weather View 32 v70,2013-04-13 05:05:00,
2013-04-13 00:10:00,29.9,25.9,30.11,West,270,3.0,12.0,85,0.00,,,0.00,Weather View 32 v70,2013-04-13 05:10:00,
2013-04-13 00:15:00,29.7,25.7,30.11,WSW,247,2.0,11.0,85,0.00,,,0.00,Weather View 32 v70,2013-04-13 05:15:00,
2013-04-13 00:20:00,29.5,25.8,30.11,West,270,3.0,11.0,86,0.00,,,0.00,Weather View 32 v70,2013-04-13 05:20:00,
2013-04-13 00:25:00,29.5,25.8,30.11,West,270,5.0,11.0,86,0.00,,,0.00,Weather View 32 v70,2013-04-13 05:25:00,
2013-04-13 00:30:00,29.4,25.7,30.11,West,270,4.0,11.0,86,0.00,,,0.00,Weather View 32 v70,2013-04-13 05:30:00,
2013-04-13 00:35:00,29.4,25.7,30.11,West,270,2.0,9.0,86,0.00,,,0.00,Weather View 32 v70,2013-04-13 05:35:00,
2013-04-13 00:40:00,29.4,25.7,30.11,West,270,3.0,9.0,86,0.00,,,0.00,Weather View 32 v70,2013-04-13 05:40:00,
2013-04-13 00:45:00,29.2,25.5,30.12,West,270,2.0,9.0,86,0.00,,,0.00,Weather View 32 v70,2013-04-13 05:45:00,
2013-04-13 00:50:00,29.0,25.3,30.12,West,270,5.0,9.0,86,0.00,,,0.00,Weather View 32 v70,2013-04-13 05:50:00,
2013-04-13 00:55:00,28.9,25.5,30.12,West,270,4.0,9.0,87,0.00,,,0.00,Weather View 32 v70,2013-04-13 05:55:00,
2013-04-13 01:00:00,28.9,25.2,30.12,West,270,3.0,9.0,86,0.00,,,0.00,Weather View 32 v70,2013-04-13 06:00:00,
2013-04-13 01:05:00,28.8,25.4,30.12,West,270,4.0,8.0,87,0.00,,,0.00,Weather View 32 v70,2013-04-13 06:05:00,
2013-04-13 01:10:00,28.7,25.3,30.12,WSW,247,4.0,8.0,87,0.00,,,0.00,Weather View 32 v70,2013-04-13 06:10:00,
2013-04-13 01:15:00,28.5,25.4,30.12,West,270,6.0,8.0,88,0.00,,,0.00,Weather View 32 v70,2013-04-13 06:15:00,
2013-04-13 01:20:00,28.3,24.9,30.12,West,270,5.0,9.0,87,0.00,,,0.00,Weather View 32 v70,2013-04-13 06:20:00,
2013-04-13 01:25:00,28.2,25.1,30.12,WNW,292,6.0,9.0,88,0.00,,,0.00,Weather View 32 v70,2013-04-13 06:25:00,
2013-04-13 01:30:00,28.0,24.9,30.12,WNW,292,7.0,9.0,88,0.00,,,0.00,Weather View 32 v70,2013-04-13 06:30:00,
2013-04-13 01:35:00,28.0,24.9,30.12,West,270,5.0,9.0,88,0.00,,,0.00,Weather View 32 v70,2013-04-13 06:35:00,
2013-04-13 01:40:00,28.0,25.2,30.12,West,270,2.0,9.0,89,0.00,,,0.00,Weather View 32 v70,2013-04-13 06:40:00,
2013-04-13 01:50:00,27.9,24.8,30.12,WNW,292,4.0,9.0,88,0.00,,,0.00,Weather View 32 v70,2013-04-13 06:50:00,
2013-04-13 01:55:00,27.7,24.9,30.12,West,270,2.0,9.0,89,0.00,,,0.00,Weather View 32 v70,2013-04-13 06:55:00,
2013-04-13 02:00:00,27.5,25.0,30.12,West,270,2.0,9.0,90,0.00,,,0.00,Weather View 32 v70,2013-04-13 07:00:00,
2013-04-13 02:05:00,27.3,24.8,30.12,WSW,247,2.0,9.0,90,0.00,,,0.00,Weather View 32 v70,2013-04-13 07:05:00,
2013-04-13 02:10:00,27.2,24.7,30.12,West,270,2.0,9.0,90,0.00,,,0.00,Weather View 32 v70,2013-04-13 07:10:00,
2013-04-13 02:15:00,27.1,24.6,30.11,West,270,2.0,9.0,90,0.00,,,0.00,Weather View 32 v70,2013-04-13 07:15:00,
2013-04-13 02:20:00,27.1,24.6,30.11,West,270,1.0,9.0,90,0.00,,,0.00,Weather View 32 v70,2013-04-13 07:20:00,
2013-04-13 02:25:00,26.9,24.4,30.11,West,270,3.0,9.0,90,0.00,,,0.00,Weather View 32 v70,2013-04-13 07:25:00,
2013-04-13 02:30:00,27.0,24.5,30.11,West,270,3.0,9.0,90,0.00,,,0.00,Weather View 32 v70,2013-04-13 07:30:00,
2013-04-13 02:36:00,27.2,24.4,30.11,West,270,5.0,9.0,89,0.00,,,0.00,Weather View 32 v70,2013-04-13 07:36:00,
2013-04-13 02:41:00,27.2,24.4,30.11,West,270,4.0,9.0,89,0.00,,,0.00,Weather View 32 v70,2013-04-13 07:41:00,
2013-04-13 02:46:00,27.2,24.4,30.11,West,270,3.0,7.0,89,0.00,,,0.00,Weather View 32 v70,2013-04-13 07:46:00,
2013-04-13 02:51:00,27.3,24.5,30.11,SSW,202,1.0,7.0,89,0.00,,,0.00,Weather View 32 v70,2013-04-13 07:51:00,
2013-04-13 02:57:00,27.1,24.6,30.11,WSW,247,3.0,7.0,90,0.00,,,0.00,Weather View 32 v70,2013-04-13 07:57:00,
2013-04-13 03:02:00,26.8,24.3,30.10,WSW,247,3.0,7.0,90,0.00,,,0.00,Weather View 32 v70,2013-04-13 08:02:00,
2013-04-13 03:07:00,26.4,23.9,30.10,SW,225,2.0,7.0,90,0.00,,,0.00,Weather View 32 v70,2013-04-13 08:07:00,
2013-04-13 03:12:00,26.2,23.7,30.11,West,270,3.0,7.0,90,0.00,,,0.00,Weather View 32 v70,2013-04-13 08:12:00,
2013-04-13 03:17:00,26.1,23.6,30.11,West,270,3.0,7.0,90,0.00,,,0.00,Weather View 32 v70,2013-04-13 08:17:00,
2013-04-13 03:22:00,25.9,23.6,30.11,West,270,4.0,7.0,91,0.00,,,0.00,Weather View 32 v70,2013-04-13 08:22:00,
2013-04-13 03:27:00,25.9,23.4,30.11,SW,225,1.0,7.0,90,0.00,,,0.00,Weather View 32 v70,2013-04-13 08:27:00,
2013-04-13 03:33:00,25.9,23.6,30.11,WSW,247,1.0,7.0,91,0.00,,,0.00,Weather View 32 v70,2013-04-13 08:33:00,
2013-04-13 03:38:00,25.7,23.2,30.11,WSW,247,2.0,7.0,90,0.00,,,0.00,Weather View 32 v70,2013-04-13 08:38:00,
2013-04-13 03:43:00,25.7,23.4,30.11,WSW,247,1.0,7.0,91,0.00,,,0.00,Weather View 32 v70,2013-04-13 08:43:00,
2013-04-13 03:49:00,25.6,23.3,30.11,WSW,247,2.0,7.0,91,0.00,,,0.00,Weather View 32 v70,2013-04-13 08:49:00,
2013-04-13 03:54:00,25.5,23.2,30.11,WSW,247,2.0,7.0,91,0.00,,,0.00,Weather View 32 v70,2013-04-13 08:54:00,
2013-04-13 03:59:00,25.3,23.0,30.11,WSW,247,3.0,7.0,91,0.00,,,0.00,Weather View 32 v70,2013-04-13 08:59:00,
2013-04-13 04:04:00,25.2,22.9,30.11,West,270,1.0,7.0,91,0.00,,,0.00,Weather View 32 v70,2013-04-13 09:04:00,
2013-04-13 04:09:00,25.0,23.0,30.11,WSW,247,2.0,7.0,92,0.00,,,0.00,Weather View 32 v70,2013-04-13 09:09:00,
2013-04-13 04:14:00,24.9,22.9,30.11,WSW,247,3.0,7.0,92,0.00,,,0.00,Weather View 32 v70,2013-04-13 09:14:00,
2013-04-13 04:19:00,24.9,22.9,30.11,WSW,247,2.0,7.0,92,0.00,,,0.00,Weather View 32 v70,2013-04-13 09:19:00,
2013-04-13 04:24:00,24.9,23.2,30.11,WSW,247,1.0,6.0,93,0.00,,,0.00,Weather View 32 v70,2013-04-13 09:24:00,
2013-04-13 04:29:00,24.9,23.2,30.10,WSW,247,2.0,6.0,93,0.00,,,0.00,Weather View 32 v70,2013-04-13 09:29:00,
2013-04-13 04:34:00,24.9,23.2,30.11,WSW,247,1.0,6.0,93,0.00,,,0.00,Weather View 32 v70,2013-04-13 09:34:00,
2013-04-13 04:39:00,24.9,23.2,30.11,WSW,247,1.0,6.0,93,0.00,,,0.00,Weather View 32 v70,2013-04-13 09:39:00,
2013-04-13 04:44:00,24.8,23.1,30.11,WSW,247,2.0,6.0,93,0.00,,,0.00,Weather View 32 v70,2013-04-13 09:44:00,
2013-04-13 04:49:00,24.5,22.8,30.11,WSW,247,2.0,6.0,93,0.00,,,0.00,Weather View 32 v70,2013-04-13 09:49:00,
2013-04-13 04:54:00,24.5,22.8,30.10,West,270,2.0,6.0,93,0.00,,,0.00,Weather View 32 v70,2013-04-13 09:54:00,
2013-04-13 04:59:00,24.6,22.9,30.10,WSW,247,2.0,6.0,93,0.00,,,0.00,Weather View 32 v70,2013-04-13 09:59:00,
2013-04-13 05:04:00,24.6,22.9,30.11,WSW,247,1.0,6.0,93,0.00,,,0.00,Weather View 32 v70,2013-04-13 10:04:00,
2013-04-13 05:10:00,24.5,22.8,30.11,WSW,247,2.0,6.0,93,0.00,,,0.00,Weather View 32 v70,2013-04-13 10:10:00,
2013-04-13 05:15:00,24.4,22.7,30.10,West,270,1.0,6.0,93,0.00,,,0.00,Weather View 32 v70,2013-04-13 10:15:00,
2013-04-13 05:20:00,24.4,22.7,30.11,WSW,247,1.0,6.0,93,0.00,,,0.00,Weather View 32 v70,2013-04-13 10:20:00,
2013-04-13 05:25:00,24.4,22.7,30.10,WSW,247,2.0,6.0,93,0.00,,,0.00,Weather View 32 v70,2013-04-13 10:25:00,
2013-04-13 05:31:00,24.3,22.6,30.10,West,270,2.0,6.0,93,0.00,,,0.00,Weather View 32 v70,2013-04-13 10:31:00,
2013-04-13 05:36:00,24.4,22.7,30.10,West,270,2.0,6.0,93,0.00,,,0.00,Weather View 32 v70,2013-04-13 10:36:00,
2013-04-13 05:41:00,24.6,22.9,30.10,West,270,2.0,6.0,93,0.00,,,0.00,Weather View 32 v70,2013-04-13 10:41:00,
2013-04-13 05:47:00,24.7,23.0,30.10,West,270,1.0,6.0,93,0.00,,,0.00,Weather View 32 v70,2013-04-13 10:47:00,
2013-04-13 05:52:00,24.7,23.0,30.10,WSW,247,2.0,6.0,93,0.00,,,0.00,Weather View 32 v70,2013-04-13 10:52:00,
2013-04-13 05:57:00,24.6,22.9,30.11,WSW,247,2.0,5.0,93,0.00,,,0.00,Weather View 32 v70,2013-04-13 10:57:00,
2013-04-13 06:02:00,24.5,22.8,30.10,WSW,247,1.0,5.0,93,0.00,,,0.00,Weather View 32 v70,2013-04-13 11:02:00,
2013-04-13 06:07:00,24.5,22.8,30.11,WSW,247,2.0,5.0,93,0.00,,,0.00,Weather View 32 v70,2013-04-13 11:07:00,
2013-04-13 06:12:00,24.5,22.8,30.11,WSW,247,1.0,5.0,93,0.00,,,0.00,Weather View 32 v70,2013-04-13 11:12:00,
2013-04-13 06:17:00,24.4,22.7,30.11,WSW,247,1.0,5.0,93,0.00,,,0.00,Weather View 32 v70,2013-04-13 11:17:00,
2013-04-13 06:22:00,24.5,22.8,30.11,WSW,247,1.0,5.0,93,0.00,,,0.00,Weather View 32 v70,2013-04-13 11:22:00,
2013-04-13 06:28:00,24.4,22.7,30.10,WSW,247,0.0,5.0,93,0.00,,,0.00,Weather View 32 v70,2013-04-13 11:28:00,
2013-04-13 06:33:00,24.3,22.6,30.10,WSW,247,0.0,5.0,93,0.00,,,0.00,Weather View 32 v70,2013-04-13 11:33:00,
2013-04-13 06:38:00,24.2,22.5,30.10,WSW,247,1.0,5.0,93,0.00,,,0.00,Weather View 32 v70,2013-04-13 11:38:00,
2013-04-13 06:43:00,24.2,22.5,30.10,WSW,247,1.0,4.0,93,0.00,,,0.00,Weather View 32 v70,2013-04-13 11:43:00,
2013-04-13 06:49:00,24.1,22.4,30.11,WSW,247,0.0,4.0,93,0.00,,,0.00,Weather View 32 v70,2013-04-13 11:49:00,
2013-04-13 06:54:00,24.2,22.5,30.11,WSW,247,0.0,4.0,93,0.00,,,0.00,Weather View 32 v70,2013-04-13 11:54:00,
2013-04-13 07:00:00,24.3,22.6,30.10,WSW,247,1.0,3.0,93,0.00,,,0.00,Weather View 32 v70,2013-04-13 12:00:00,
2013-04-13 07:05:00,24.5,22.8,30.11,WSW,247,0.0,3.0,93,0.00,,,0.00,Weather View 32 v70,2013-04-13 12:05:00,
2013-04-13 07:10:00,24.9,23.2,30.11,WSW,247,0.0,2.0,93,0.00,,,0.00,Weather View 32 v70,2013-04-13 12:10:00,
2013-04-13 07:15:00,25.1,23.4,30.11,WSW,247,0.0,2.0,93,0.00,,,0.00,Weather View 32 v70,2013-04-13 12:15:00,
2013-04-13 07:20:00,25.4,23.9,30.11,WSW,247,0.0,2.0,94,0.00,,,0.00,Weather View 32 v70,2013-04-13 12:20:00,
2013-04-13 07:25:00,25.7,24.2,30.11,WSW,247,0.0,2.0,94,0.00,,,0.00,Weather View 32 v70,2013-04-13 12:25:00,
2013-04-13 07:30:00,25.9,24.2,30.11,WSW,247,0.0,2.0,93,0.00,,,0.00,Weather View 32 v70,2013-04-13 12:30:00,
2013-04-13 07:35:00,26.1,24.4,30.11,WSW,247,0.0,2.0,93,0.00,,,0.00,Weather View 32 v70,2013-04-13 12:35:00,
2013-04-13 07:40:00,26.3,24.6,30.11,SE,135,1.0,2.0,93,0.00,,,0.00,Weather View 32 v70,2013-04-13 12:40:00,
2013-04-13 07:50:00,26.8,24.8,30.10,SE,135,0.0,2.0,92,0.00,,,0.00,Weather View 32 v70,2013-04-13 12:50:00,
2013-04-13 07:55:00,27.2,25.2,30.10,SE,135,0.0,2.0,92,0.00,,,0.00,Weather View 32 v70,2013-04-13 12:55:00,
2013-04-13 08:00:00,27.5,25.2,30.10,SE,135,0.0,2.0,91,0.00,,,0.00,Weather View 32 v70,2013-04-13 13:00:00,
2013-04-13 08:05:00,27.8,25.2,30.10,SE,135,0.0,2.0,90,0.00,,,0.00,Weather View 32 v70,2013-04-13 13:05:00,
2013-04-13 08:10:00,28.1,25.5,30.10,SSW,202,0.0,2.0,90,0.00,,,0.00,Weather View 32 v70,2013-04-13 13:10:00,
2013-04-13 08:15:00,28.3,25.7,30.10,SSW,202,1.0,2.0,90,0.00,,,0.00,Weather View 32 v70,2013-04-13 13:15:00,
2013-04-13 08:21:00,28.9,26.3,30.10,SSW,202,0.0,2.0,90,0.00,,,0.00,Weather View 32 v70,2013-04-13 13:21:00,
2013-04-13 08:28:00,29.1,26.0,30.10,SSW,202,2.0,3.0,88,0.00,,,0.00,Weather View 32 v70,2013-04-13 13:28:00,
2013-04-13 08:33:00,29.4,26.3,30.10,SSW,202,0.0,3.0,88,0.00,,,0.00,Weather View 32 v70,2013-04-13 13:33:00,
2013-04-13 08:38:00,30.1,27.0,30.10,SSW,202,0.0,3.0,88,0.00,,,0.00,Weather View 32 v70,2013-04-13 13:38:00,
2013-04-13 08:43:00,30.7,27.3,30.09,North,360,1.0,3.0,87,0.00,,,0.00,Weather View 32 v70,2013-04-13 13:43:00,
2013-04-13 08:48:00,31.4,27.7,30.09,North,360,0.0,3.0,86,0.00,,,0.00,Weather View 32 v70,2013-04-13 13:48:00,
2013-04-13 08:53:00,32.0,27.7,30.09,North,360,0.0,3.0,84,0.00,,,0.00,Weather View 32 v70,2013-04-13 13:53:00,
2013-04-13 08:58:00,32.3,28.0,30.09,NW,315,2.0,4.0,84,0.00,,,0.00,Weather View 32 v70,2013-04-13 13:58:00,
2013-04-13 09:03:00,33.0,27.8,30.08,NW,315,0.0,4.0,81,0.00,,,0.00,Weather View 32 v70,2013-04-13 14:03:00,
2013-04-13 09:08:00,33.8,28.6,30.08,NE,45,4.0,4.0,81,0.00,,,0.00,Weather View 32 v70,2013-04-13 14:08:00,
2013-04-13 09:14:00,33.9,28.1,30.08,NNE,22,3.0,5.0,79,0.00,,,0.00,Weather View 32 v70,2013-04-13 14:14:00,
2013-04-13 09:19:00,33.8,28.3,30.08,NE,45,2.0,6.0,80,0.00,,,0.00,Weather View 32 v70,2013-04-13 14:19:00,
2013-04-13 09:24:00,34.3,28.8,30.08,NNE,22,2.0,6.0,80,0.00,,,0.00,Weather View 32 v70,2013-04-13 14:24:00,
2013-04-13 09:29:00,34.8,28.9,30.08,NW,315,2.0,6.0,79,0.00,,,0.00,Weather View 32 v70,2013-04-13 14:29:00,
2013-04-13 09:37:00,34.7,28.9,30.09,West,270,0.0,6.0,79,0.00,,,0.00,Weather View 32 v70,2013-04-13 14:37:00,
2013-04-13 09:42:00,34.5,29.3,30.09,West,270,2.0,6.0,81,0.00,,,0.00,Weather View 32 v70,2013-04-13 14:42:00,
2013-04-13 09:47:00,34.4,28.9,30.09,West,270,1.0,6.0,80,0.00,,,0.00,Weather View 32 v70,2013-04-13 14:47:00,
2013-04-13 09:52:00,34.7,29.2,30.09,SSW,202,2.0,6.0,80,0.00,,,0.00,Weather View 32 v70,2013-04-13 14:52:00,
2013-04-13 09:57:00,34.9,29.0,30.09,South,180,1.0,6.0,79,0.00,,,0.00,Weather View 32 v70,2013-04-13 14:57:00,
2013-04-13 10:03:00,35.4,29.8,30.09,South,180,2.0,6.0,80,0.00,,,0.00,Weather View 32 v70,2013-04-13 15:03:00,
2013-04-13 10:08:00,35.9,30.0,30.09,South,180,2.0,6.0,79,0.00,,,0.00,Weather View 32 v70,2013-04-13 15:08:00,
2013-04-13 10:13:00,36.3,29.8,30.09,SSW,202,1.0,6.0,77,0.00,,,0.00,Weather View 32 v70,2013-04-13 15:13:00,
2013-04-13 10:18:00,36.9,30.0,30.09,ESE,112,2.0,5.0,76,0.00,,,0.00,Weather View 32 v70,2013-04-13 15:18:00,
2013-04-13 10:23:00,38.2,31.3,30.08,South,180,1.0,5.0,76,0.00,,,0.00,Weather View 32 v70,2013-04-13 15:23:00,
2013-04-13 10:29:00,38.3,31.7,30.09,SE,135,3.0,5.0,77,0.00,,,0.00,Weather View 32 v70,2013-04-13 15:29:00,
2013-04-13 10:34:00,38.7,32.1,30.08,SSW,202,2.0,5.0,77,0.00,,,0.00,Weather View 32 v70,2013-04-13 15:34:00,
2013-04-13 10:39:00,38.8,32.5,30.08,SSW,202,2.0,5.0,78,0.00,,,0.00,Weather View 32 v70,2013-04-13 15:39:00,
2013-04-13 10:44:00,38.4,31.5,30.08,SSE,157,2.0,5.0,76,0.00,,,0.00,Weather View 32 v70,2013-04-13 15:44:00,
2013-04-13 10:49:00,38.7,32.1,30.08,SSW,202,1.0,5.0,77,0.00,,,0.00,Weather View 32 v70,2013-04-13 15:49:00,
2013-04-13 10:54:00,39.0,31.4,30.08,SSW,202,2.0,5.0,74,0.00,,,0.00,Weather View 32 v70,2013-04-13 15:54:00,
2013-04-13 10:59:00,39.5,31.6,30.08,South,180,1.0,5.0,73,0.00,,,0.00,Weather View 32 v70,2013-04-13 15:59:00,
2013-04-13 11:04:00,39.7,31.4,30.08,SSW,202,2.0,5.0,72,0.00,,,0.00,Weather View 32 v70,2013-04-13 16:04:00,
2013-04-13 11:09:00,39.8,32.5,30.09,South,180,2.0,5.0,75,0.00,,,0.00,Weather View 32 v70,2013-04-13 16:09:00,
2013-04-13 11:15:00,39.8,32.8,30.08,SW,225,5.0,6.0,76,0.00,,,0.00,Weather View 32 v70,2013-04-13 16:15:00,
2013-04-13 11:20:00,39.2,32.6,30.09,SSW,202,3.0,7.0,77,0.00,,,0.00,Weather View 32 v70,2013-04-13 16:20:00,
2013-04-13 11:25:00,39.3,33.0,30.08,SSW,202,2.0,7.0,78,0.00,,,0.00,Weather View 32 v70,2013-04-13 16:25:00,
2013-04-13 11:30:00,40.5,33.5,30.08,SW,225,2.0,7.0,76,0.00,,,0.00,Weather View 32 v70,2013-04-13 16:30:00,
2013-04-13 11:35:00,40.6,33.3,30.08,SW,225,1.0,7.0,75,0.00,,,0.00,Weather View 32 v70,2013-04-13 16:35:00,
2013-04-13 11:40:00,40.3,32.7,30.08,West,270,2.0,7.0,74,0.00,,,0.00,Weather View 32 v70,2013-04-13 16:40:00,
2013-04-13 11:45:00,40.7,33.1,30.08,SW,225,1.0,7.0,74,0.00,,,0.00,Weather View 32 v70,2013-04-13 16:45:00,
2013-04-13 11:50:00,41.0,33.7,30.08,SW,225,3.0,7.0,75,0.00,,,0.00,Weather View 32 v70,2013-04-13 16:50:00,
2013-04-13 11:55:00,40.8,32.8,30.08,WSW,247,2.0,7.0,73,0.00,,,0.00,Weather View 32 v70,2013-04-13 16:55:00,
2013-04-13 12:00:00,40.8,32.8,30.08,WSW,247,2.0,7.0,73,0.00,,,0.00,Weather View 32 v70,2013-04-13 17:00:00,
2013-04-13 12:05:00,41.2,33.5,30.07,WSW,247,2.0,7.0,74,0.00,,,0.00,Weather View 32 v70,2013-04-13 17:05:00,
2013-04-13 12:10:00,41.9,33.9,30.07,SW,225,2.0,7.0,73,0.00,,,0.00,Weather View 32 v70,2013-04-13 17:10:00,
2013-04-13 12:20:00,42.9,33.1,30.07,SSW,202,1.0,7.0,68,0.00,,,0.00,Weather View 32 v70,2013-04-13 17:20:00,
2013-04-13 12:25:00,42.9,32.3,30.07,South,180,1.0,7.0,66,0.00,,,0.00,Weather View 32 v70,2013-04-13 17:25:00,
2013-04-13 12:30:00,42.8,31.8,30.07,South,180,0.0,7.0,65,0.00,,,0.00,Weather View 32 v70,2013-04-13 17:30:00,
2013-04-13 12:35:00,43.9,34.7,30.06,SSW,202,2.0,7.0,70,0.00,,,0.00,Weather View 32 v70,2013-04-13 17:35:00,
2013-04-13 12:40:00,44.3,34.0,30.06,SSW,202,2.0,7.0,67,0.00,,,0.00,Weather View 32 v70,2013-04-13 17:40:00,
2013-04-13 12:45:00,44.1,33.5,30.06,SE,135,6.0,7.0,66,0.00,,,0.00,Weather View 32 v70,2013-04-13 17:45:00,
2013-04-13 12:50:00,43.9,34.0,30.06,SE,135,4.0,7.0,68,0.00,,,0.00,Weather View 32 v70,2013-04-13 17:50:00,
2013-04-13 12:56:00,44.7,35.1,30.05,SE,135,2.0,7.0,69,0.00,,,0.00,Weather View 32 v70,2013-04-13 17:56:00,
2013-04-13 13:02:00,45.7,36.8,30.05,SSW,202,2.0,7.0,71,0.00,,,0.00,Weather View 32 v70,2013-04-13 18:02:00,
2013-04-13 13:07:00,45.9,35.5,30.05,South,180,0.0,7.0,67,0.00,,,0.00,Weather View 32 v70,2013-04-13 18:07:00,
2013-04-13 13:12:00,46.4,34.9,30.05,SSE,157,2.0,7.0,64,0.00,,,0.00,Weather View 32 v70,2013-04-13 18:12:00,
2013-04-13 13:17:00,46.8,36.0,30.05,South,180,2.0,7.0,66,0.00,,,0.00,Weather View 32 v70,2013-04-13 18:17:00,
2013-04-13 13:22:00,46.8,36.4,30.04,SW,225,0.0,7.0,67,0.00,,,0.00,Weather View 32 v70,2013-04-13 18:22:00,
2013-04-13 13:27:00,46.7,35.2,30.04,ENE,67,4.0,7.0,64,0.00,,,0.00,Weather View 32 v70,2013-04-13 18:27:00,
2013-04-13 13:28:00,46.4,36.0,30.04,SSW,202,2.0,7.0,67,0.00,,,0.00,Weather View 32 v70,2013-04-13 18:28:00,
2013-04-13 13:33:00,46.5,35.4,30.04,South,180,1.0,7.0,65,0.00,,,0.00,Weather View 32 v70,2013-04-13 18:33:00,
2013-04-13 13:38:00,46.8,35.2,30.04,SSW,202,1.0,7.0,64,0.00,,,0.00,Weather View 32 v70,2013-04-13 18:38:00,
2013-04-13 13:43:00,47.4,35.8,30.04,SSW,202,2.0,7.0,64,0.00,,,0.00,Weather View 32 v70,2013-04-13 18:43:00,
2013-04-13 13:48:00,47.5,34.7,30.04,SE,135,1.0,7.0,61,0.00,,,0.00,Weather View 32 v70,2013-04-13 18:48:00,
2013-04-13 13:53:00,47.4,35.4,30.04,SE,135,1.0,7.0,63,0.00,,,0.00,Weather View 32 v70,2013-04-13 18:53:00,
2013-04-13 13:58:00,47.9,35.9,30.03,ESE,112,4.0,8.0,63,0.00,,,0.00,Weather View 32 v70,2013-04-13 18:58:00,
2013-04-13 14:03:00,48.7,37.8,30.03,East,90,2.0,8.0,66,0.00,,,0.00,Weather View 32 v70,2013-04-13 19:03:00,
2013-04-13 14:08:00,48.8,36.3,30.02,SSW,202,1.0,8.0,62,0.00,,,0.00,Weather View 32 v70,2013-04-13 19:08:00,
2013-04-13 14:13:00,48.0,34.8,30.02,SSW,202,1.0,8.0,60,0.00,,,0.00,Weather View 32 v70,2013-04-13 19:13:00,
2013-04-13 14:18:00,48.2,34.9,30.03,SE,135,4.0,8.0,60,0.00,,,0.00,Weather View 32 v70,2013-04-13 19:18:00,
2013-04-13 14:23:00,47.9,34.2,30.02,SE,135,4.0,8.0,59,0.00,,,0.00,Weather View 32 v70,2013-04-13 19:23:00,
2013-04-13 14:28:00,48.3,34.6,30.02,SE,135,2.0,8.0,59,0.00,,,0.00,Weather View 32 v70,2013-04-13 19:28:00,
2013-04-13 14:33:00,48.3,35.0,30.02,ESE,112,4.0,8.0,60,0.00,,,0.00,Weather View 32 v70,2013-04-13 19:33:00,
2013-04-13 14:38:00,47.9,38.6,30.01,East,90,2.0,9.0,70,0.00,,,0.00,Weather View 32 v70,2013-04-13 19:38:00,
2013-04-13 14:43:00,47.9,35.1,30.00,SE,135,4.0,9.0,61,0.00,,,0.00,Weather View 32 v70,2013-04-13 19:43:00,
2013-04-13 14:48:00,48.4,34.3,30.00,SE,135,4.0,9.0,58,0.00,,,0.00,Weather View 32 v70,2013-04-13 19:48:00,
2013-04-13 14:53:00,48.4,34.7,30.00,SSE,157,2.0,9.0,59,0.00,,,0.00,Weather View 32 v70,2013-04-13 19:53:00,
2013-04-13 14:58:00,48.8,35.1,29.99,ESE,112,4.0,9.0,59,0.00,,,0.00,Weather View 32 v70,2013-04-13 19:58:00,
2013-04-13 15:03:00,48.8,34.7,29.99,ESE,112,7.0,9.0,58,0.00,,,0.00,Weather View 32 v70,2013-04-13 20:03:00,
2013-04-13 15:08:00,48.7,37.0,29.98,East,90,4.0,10.0,64,0.00,,,0.00,Weather View 32 v70,2013-04-13 20:08:00,
2013-04-13 15:14:00,48.5,36.1,29.98,SE,135,5.0,12.0,62,0.00,,,0.00,Weather View 32 v70,2013-04-13 20:14:00,
2013-04-13 15:19:00,48.3,34.6,29.98,ESE,112,4.0,13.0,59,0.00,,,0.00,Weather View 32 v70,2013-04-13 20:19:00,
2013-04-13 15:24:00,48.3,35.5,29.98,SE,135,7.0,13.0,61,0.00,,,0.00,Weather View 32 v70,2013-04-13 20:24:00,
2013-04-13 15:29:00,48.1,34.4,29.97,SE,135,7.0,13.0,59,0.00,,,0.00,Weather View 32 v70,2013-04-13 20:29:00,
2013-04-13 15:34:00,47.8,34.6,29.97,ESE,112,6.0,13.0,60,0.00,,,0.00,Weather View 32 v70,2013-04-13 20:34:00,
2013-04-13 15:39:00,47.8,36.6,29.97,East,90,7.0,13.0,65,0.00,,,0.00,Weather View 32 v70,2013-04-13 20:39:00,
2013-04-13 15:44:00,47.5,35.5,29.97,ESE,112,4.0,13.0,63,0.00,,,0.00,Weather View 32 v70,2013-04-13 20:44:00,
2013-04-13 15:49:00,47.3,35.3,29.97,East,90,9.0,13.0,63,0.00,,,0.00,Weather View 32 v70,2013-04-13 20:49:00,
2013-04-13 15:54:00,47.3,35.7,29.96,ESE,112,4.0,13.0,64,0.00,,,0.00,Weather View 32 v70,2013-04-13 20:54:00,
2013-04-13 15:59:00,47.2,36.4,29.96,East,90,6.0,13.0,66,0.00,,,0.00,Weather View 32 v70,2013-04-13 20:59:00,
2013-04-13 16:04:00,47.1,36.3,29.96,ESE,112,7.0,13.0,66,0.00,,,0.00,Weather View 32 v70,2013-04-13 21:04:00,
2013-04-13 16:09:00,46.9,36.1,29.96,ESE,112,4.0,14.0,66,0.00,,,0.00,Weather View 32 v70,2013-04-13 21:09:00,
2013-04-13 16:14:00,47.1,36.7,29.96,East,90,9.0,14.0,67,0.00,,,0.00,Weather View 32 v70,2013-04-13 21:14:00,
2013-04-13 16:19:00,46.9,36.1,29.95,ESE,112,9.0,14.0,66,0.00,,,0.00,Weather View 32 v70,2013-04-13 21:19:00,
2013-04-13 16:24:00,46.9,36.9,29.95,East,90,7.0,14.0,68,0.00,,,0.00,Weather View 32 v70,2013-04-13 21:24:00,
2013-04-13 16:29:00,46.8,36.8,29.95,East,90,12.0,14.0,68,0.00,,,0.00,Weather View 32 v70,2013-04-13 21:29:00,
2013-04-13 16:34:00,46.6,36.6,29.94,East,90,8.0,16.0,68,0.08,,,0.00,Weather View 32 v70,2013-04-13 21:34:00,
2013-04-13 16:39:00,46.6,36.6,29.94,East,90,5.0,16.0,68,0.00,,,0.00,Weather View 32 v70,2013-04-13 21:39:00,
2013-04-13 16:44:00,46.4,36.4,29.94,ESE,112,9.0,16.0,68,0.00,,,0.00,Weather View 32 v70,2013-04-13 21:44:00,
2013-04-13 16:49:00,46.3,36.3,29.94,SE,135,7.0,16.0,68,0.00,,,0.00,Weather View 32 v70,2013-04-13 21:49:00,
2013-04-13 16:54:00,46.2,36.2,29.94,ESE,112,11.0,16.0,68,0.00,,,0.00,Weather View 32 v70,2013-04-13 21:54:00,
2013-04-13 16:59:00,46.2,36.2,29.94,ESE,112,6.0,16.0,68,0.00,,,0.00,Weather View 32 v70,2013-04-13 21:59:00,
2013-04-13 17:04:00,46.1,36.1,29.94,ESE,112,2.0,16.0,68,0.00,,,0.00,Weather View 32 v70,2013-04-13 22:04:00,
2013-04-13 17:09:00,46.1,36.1,29.93,ESE,112,8.0,16.0,68,0.00,,,0.00,Weather View 32 v70,2013-04-13 22:09:00,
2013-04-13 17:14:00,46.2,36.2,29.93,ESE,112,6.0,17.0,68,0.00,,,0.00,Weather View 32 v70,2013-04-13 22:14:00,
2013-04-13 17:19:00,46.3,36.3,29.93,ESE,112,6.0,17.0,68,0.00,,,0.00,Weather View 32 v70,2013-04-13 22:19:00,
2013-04-13 17:24:00,46.3,35.9,29.93,ESE,112,10.0,17.0,67,0.00,,,0.00,Weather View 32 v70,2013-04-13 22:24:00,
2013-04-13 17:29:00,46.2,35.8,29.93,ESE,112,9.0,17.0,67,0.00,,,0.00,Weather View 32 v70,2013-04-13 22:29:00,
2013-04-13 17:34:00,46.3,36.3,29.93,East,90,7.0,17.0,68,0.00,,,0.00,Weather View 32 v70,2013-04-13 22:34:00,
2013-04-13 17:39:00,46.3,36.3,29.92,East,90,8.0,17.0,68,0.00,,,0.00,Weather View 32 v70,2013-04-13 22:39:00,
2013-04-13 17:44:00,46.3,35.9,29.92,East,90,9.0,17.0,67,0.00,,,0.00,Weather View 32 v70,2013-04-13 22:44:00,
2013-04-13 17:49:00,46.4,36.0,29.92,ESE,112,5.0,17.0,67,0.00,,,0.00,Weather View 32 v70,2013-04-13 22:49:00,
2013-04-13 17:54:00,46.4,35.6,29.92,East,90,4.0,17.0,66,0.00,,,0.00,Weather View 32 v70,2013-04-13 22:54:00,
2013-04-13 17:59:00,46.4,35.6,29.92,East,90,6.0,17.0,66,0.00,,,0.00,Weather View 32 v70,2013-04-13 22:59:00,
2013-04-13 18:04:00,46.4,35.6,29.92,East,90,4.0,17.0,66,0.00,,,0.00,Weather View 32 v70,2013-04-13 23:04:00,
2013-04-13 18:09:00,46.4,35.3,29.92,ESE,112,2.0,17.0,65,0.00,,,0.00,Weather View 32 v70,2013-04-13 23:09:00,
2013-04-13 18:14:00,46.4,35.3,29.92,East,90,4.0,16.0,65,0.00,,,0.00,Weather View 32 v70,2013-04-13 23:14:00,
2013-04-13 18:19:00,46.4,35.6,29.92,East,90,4.0,16.0,66,0.00,,,0.00,Weather View 32 v70,2013-04-13 23:19:00,
2013-04-13 18:24:00,46.5,35.4,29.92,East,90,4.0,16.0,65,0.00,,,0.00,Weather View 32 v70,2013-04-13 23:24:00,
2013-04-13 18:29:00,46.7,35.9,29.92,East,90,4.0,13.0,66,0.00,,,0.00,Weather View 32 v70,2013-04-13 23:29:00,
2013-04-13 18:34:00,46.7,35.5,29.92,East,90,4.0,16.0,65,0.00,,,0.00,Weather View 32 v70,2013-04-13 23:34:00,
2013-04-13 18:39:00,46.8,35.6,29.92,ESE,112,6.0,16.0,65,0.00,,,0.00,Weather View 32 v70,2013-04-13 23:39:00,
2013-04-13 18:44:00,46.8,35.6,29.92,East,90,7.0,16.0,65,0.00,,,0.00,Weather View 32 v70,2013-04-13 23:44:00,
2013-04-13 18:49:00,46.8,35.6,29.92,East,90,6.0,16.0,65,0.00,,,0.00,Weather View 32 v70,2013-04-13 23:49:00,
2013-04-13 18:54:00,46.8,35.6,29.92,East,90,6.0,16.0,65,0.00,,,0.00,Weather View 32 v70,2013-04-13 23:54:00,
2013-04-13 18:59:00,46.7,35.9,29.92,East,90,9.0,16.0,66,0.00,,,0.00,Weather View 32 v70,2013-04-13 23:59:00,
2013-04-13 19:04:00,46.6,35.4,29.91,ESE,112,5.0,16.0,65,0.00,,,0.00,Weather View 32 v70,2013-04-14 00:04:00,
2013-04-13 19:09:00,46.6,35.8,29.91,East,90,10.0,16.0,66,0.00,,,0.00,Weather View 32 v70,2013-04-14 00:09:00,
2013-04-13 19:14:00,46.6,35.8,29.91,ESE,112,7.0,16.0,66,0.00,,,0.00,Weather View 32 v70,2013-04-14 00:14:00,
2013-04-13 19:19:00,46.6,35.8,29.91,East,90,6.0,16.0,66,0.00,,,0.00,Weather View 32 v70,2013-04-14 00:19:00,
2013-04-13 19:24:00,46.5,35.7,29.91,East,90,8.0,16.0,66,0.00,,,0.00,Weather View 32 v70,2013-04-14 00:24:00,
2013-04-13 19:29:00,46.5,35.7,29.90,East,90,1.0,16.0,66,0.00,,,0.00,Weather View 32 v70,2013-04-14 00:29:00,
2013-04-13 19:34:00,46.5,36.1,29.90,East,90,4.0,14.0,67,0.00,,,0.00,Weather View 32 v70,2013-04-14 00:34:00,
2013-04-13 19:39:00,46.4,36.0,29.90,East,90,10.0,16.0,67,0.00,,,0.00,Weather View 32 v70,2013-04-14 00:39:00,
2013-04-13 19:44:00,46.4,36.0,29.90,East,90,6.0,16.0,67,0.00,,,0.00,Weather View 32 v70,2013-04-14 00:44:00,
2013-04-13 19:49:00,46.3,35.9,29.90,East,90,9.0,16.0,67,0.00,,,0.00,Weather View 32 v70,2013-04-14 00:49:00,
2013-04-13 19:54:00,46.3,36.3,29.90,East,90,4.0,16.0,68,0.00,,,0.00,Weather View 32 v70,2013-04-14 00:54:00,
2013-04-13 19:59:00,46.2,36.2,29.90,East,90,6.0,16.0,68,0.00,,,0.00,Weather View 32 v70,2013-04-14 00:59:00,
2013-04-13 20:05:00,46.2,36.2,29.90,East,90,7.0,16.0,68,0.00,,,0.00,Weather View 32 v70,2013-04-14 01:05:00,
2013-04-13 20:10:00,46.1,36.1,29.89,ESE,112,10.0,16.0,68,0.00,,,0.00,Weather View 32 v70,2013-04-14 01:10:00,
2013-04-13 20:15:00,46.1,36.1,29.89,East,90,8.0,17.0,68,0.08,,,0.00,Weather View 32 v70,2013-04-14 01:15:00,
2013-04-13 20:20:00,46.1,36.5,29.90,East,90,7.0,17.0,69,0.00,,,0.00,Weather View 32 v70,2013-04-14 01:20:00,
2013-04-13 20:25:00,45.9,36.3,29.90,East,90,7.0,17.0,69,0.00,,,0.00,Weather View 32 v70,2013-04-14 01:25:00,
2013-04-13 20:30:00,45.9,36.3,29.90,East,90,6.0,17.0,69,0.00,,,0.00,Weather View 32 v70,2013-04-14 01:30:00,
2013-04-13 20:35:00,45.9,36.3,29.90,East,90,10.0,17.0,69,0.00,,,0.00,Weather View 32 v70,2013-04-14 01:35:00,
2013-04-13 20:40:00,45.9,36.3,29.91,East,90,4.0,17.0,69,0.00,,,0.00,Weather View 32 v70,2013-04-14 01:40:00,
2013-04-13 20:45:00,45.9,36.3,29.90,East,90,7.0,17.0,69,0.00,,,0.00,Weather View 32 v70,2013-04-14 01:45:00,
2013-04-13 20:50:00,45.9,36.7,29.90,East,90,8.0,17.0,70,0.00,,,0.00,Weather View 32 v70,2013-04-14 01:50:00,
2013-04-13 20:55:00,45.8,36.6,29.90,East,90,7.0,17.0,70,0.00,,,0.00,Weather View 32 v70,2013-04-14 01:55:00,
2013-04-13 21:00:00,45.7,36.8,29.90,East,90,6.0,17.0,71,0.00,,,0.00,Weather View 32 v70,2013-04-14 02:00:00,
2013-04-13 21:05:00,45.6,36.7,29.89,East,90,7.0,17.0,71,0.00,,,0.00,Weather View 32 v70,2013-04-14 02:05:00,
2013-04-13 21:10:00,45.6,36.7,29.89,East,90,14.0,17.0,71,0.00,,,0.00,Weather View 32 v70,2013-04-14 02:10:00,
2013-04-13 21:15:00,45.6,36.7,29.89,SE,135,8.0,19.0,71,0.00,,,0.00,Weather View 32 v70,2013-04-14 02:15:00,
2013-04-13 21:20:00,45.8,36.6,29.89,East,90,8.0,20.0,70,0.00,,,0.00,Weather View 32 v70,2013-04-14 02:20:00,
2013-04-13 21:25:00,45.7,36.8,29.89,East,90,7.0,20.0,71,0.00,,,0.00,Weather View 32 v70,2013-04-14 02:25:00,
2013-04-13 21:30:00,45.7,36.8,29.88,East,90,7.0,20.0,71,0.00,,,0.00,Weather View 32 v70,2013-04-14 02:30:00,
2013-04-13 21:35:00,45.7,36.8,29.88,East,90,7.0,20.0,71,0.00,,,0.00,Weather View 32 v70,2013-04-14 02:35:00,
2013-04-13 21:40:00,45.8,36.9,29.88,ESE,112,9.0,21.0,71,0.00,,,0.00,Weather View 32 v70,2013-04-14 02:40:00,
2013-04-13 21:45:00,45.7,36.8,29.88,ESE,112,11.0,21.0,71,0.00,,,0.00,Weather View 32 v70,2013-04-14 02:45:00,
2013-04-13 21:50:00,45.7,36.5,29.88,East,90,9.0,21.0,70,0.00,,,0.00,Weather View 32 v70,2013-04-14 02:50:00,
2013-04-13 21:55:00,45.7,36.5,29.88,SE,135,7.0,21.0,70,0.00,,,0.00,Weather View 32 v70,2013-04-14 02:55:00,
2013-04-13 22:00:00,45.6,36.4,29.88,SE,135,6.0,21.0,70,0.00,,,0.00,Weather View 32 v70,2013-04-14 03:00:00,
2013-04-13 22:05:00,45.5,36.6,29.87,ESE,112,7.0,21.0,71,0.00,,,0.00,Weather View 32 v70,2013-04-14 03:05:00,
2013-04-13 22:10:00,45.5,36.6,29.87,SE,135,14.0,21.0,71,0.00,,,0.00,Weather View 32 v70,2013-04-14 03:10:00,
2013-04-13 22:15:00,45.7,36.5,29.87,East,90,11.0,22.0,70,0.00,,,0.00,Weather View 32 v70,2013-04-14 03:15:00,
2013-04-13 22:20:00,45.7,36.5,29.87,ESE,112,6.0,22.0,70,0.00,,,0.00,Weather View 32 v70,2013-04-14 03:20:00,
2013-04-13 22:25:00,45.8,36.6,29.87,ESE,112,15.0,22.0,70,0.00,,,0.00,Weather View 32 v70,2013-04-14 03:25:00,
2013-04-13 22:30:00,45.8,36.6,29.86,East,90,7.0,22.0,70,0.00,,,0.00,Weather View 32 v70,2013-04-14 03:30:00,
2013-04-13 22:35:00,46.0,36.4,29.87,ESE,112,11.0,24.0,69,0.00,,,0.00,Weather View 32 v70,2013-04-14 03:35:00,
2013-04-13 22:40:00,46.1,36.8,29.87,East,90,7.0,30.0,70,0.02,,,0.02,Weather View 32 v70,2013-04-14 03:40:00,
2013-04-13 22:45:00,45.9,36.7,29.86,East,90,15.0,30.0,70,0.02,,,0.02,Weather View 32 v70,2013-04-14 03:45:00,
2013-04-13 22:51:00,45.9,36.7,29.86,ESE,112,17.0,30.0,70,0.02,,,0.02,Weather View 32 v70,2013-04-14 03:51:00,
2013-04-13 22:56:00,45.9,36.7,29.85,East,90,17.0,30.0,70,0.02,,,0.02,Weather View 32 v70,2013-04-14 03:56:00,
2013-04-13 23:00:00,45.9,36.7,29.86,SE,135,5.0,30.0,70,0.02,,,0.02,Weather View 32 v70,2013-04-14 04:00:00,
2013-04-13 23:05:00,45.8,36.9,29.85,SE,135,4.0,30.0,71,0.02,,,0.02,Weather View 32 v70,2013-04-14 04:05:00,
2013-04-13 23:10:00,45.7,36.8,29.85,East,90,12.0,30.0,71,0.02,,,0.02,Weather View 32 v70,2013-04-14 04:10:00,
2013-04-13 23:15:00,45.6,36.7,29.85,SE,135,5.0,30.0,71,0.02,,,0.02,Weather View 32 v70,2013-04-14 04:15:00,
2013-04-13 23:20:00,45.5,36.6,29.84,ESE,112,6.0,30.0,71,0.02,,,0.02,Weather View 32 v70,2013-04-14 04:20:00,
2013-04-13 23:25:00,45.4,36.9,29.84,East,90,6.0,30.0,72,0.02,,,0.02,Weather View 32 v70,2013-04-14 04:25:00,
2013-04-13 23:30:00,45.4,36.9,29.84,East,90,13.0,30.0,72,0.02,,,0.02,Weather View 32 v70,2013-04-14 04:30:00,
2013-04-13 23:35:00,45.4,36.9,29.84,ESE,112,12.0,30.0,72,0.02,,,0.02,Weather View 32 v70,2013-04-14 04:35:00,
2013-04-13 23:40:00,45.4,36.5,29.84,ESE,112,16.0,25.0,71,0.00,,,0.02,Weather View 32 v70,2013-04-14 04:40:00,
2013-04-13 23:45:00,45.4,36.5,29.84,SE,135,12.0,24.0,71,0.00,,,0.02,Weather View 32 v70,2013-04-14 04:45:00,
2013-04-13 23:50:00,45.4,36.5,29.84,East,90,8.0,24.0,71,0.00,,,0.02,Weather View 32 v70,2013-04-14 04:50:00,
2013-04-13 23:55:00,45.3,36.8,29.84,East,90,11.0,24.0,72,0.00,,,0.02,Weather View 32 v70,2013-04-14 04:55:00,